createdAt,value
2023-06-07T00:00:29.895Z,15.97
2023-06-07T00:01:29.908Z,15.98
2023-06-07T00:02:42.510Z,15.92
2023-06-07T00:03:30.063Z,15.97
2023-06-07T00:04:29.910Z,16.02
2023-06-07T00:05:29.852Z,15.98
2023-06-07T00:06:29.855Z,16.04
2023-06-07T00:07:29.850Z,15.97
2023-06-07T00:08:29.845Z,16.02
2023-06-07T00:09:29.846Z,16.01
2023-06-07T00:10:29.830Z,15.98
2023-06-07T00:11:29.833Z,16.01
2023-06-07T00:12:29.796Z,16.02
2023-06-07T00:13:29.906Z,15.98
2023-06-07T00:14:29.833Z,15.95
2023-06-07T00:15:29.819Z,15.98
2023-06-07T00:16:29.812Z,16.01
2023-06-07T00:17:29.885Z,15.97
2023-06-07T00:18:29.831Z,16.01
2023-06-07T00:19:29.785Z,16.01
2023-06-07T00:20:29.743Z,16.01
2023-06-07T00:21:29.733Z,16.01
2023-06-07T00:22:29.749Z,16.00
2023-06-07T00:23:30.006Z,16.00
2023-06-07T00:24:29.742Z,16.02
2023-06-07T00:25:29.787Z,16.05
2023-06-07T00:26:29.740Z,16.01
2023-06-07T00:27:29.714Z,16.01
2023-06-07T00:28:30.030Z,16.01
2023-06-07T00:29:29.760Z,16.02
2023-06-07T00:30:29.696Z,16.02
2023-06-07T00:31:29.824Z,16.02
2023-06-07T00:32:29.679Z,16.13
2023-06-07T00:33:29.679Z,16.04
2023-06-07T00:34:29.654Z,16.10
2023-06-07T00:35:29.684Z,16.13
2023-06-07T00:36:29.655Z,16.10
2023-06-07T00:37:29.662Z,16.09
2023-06-07T00:38:29.642Z,16.12
2023-06-07T00:39:29.644Z,16.08
2023-06-07T00:40:29.634Z,16.10
2023-06-07T00:41:29.849Z,16.09
2023-06-07T00:42:29.610Z,16.09
2023-06-07T00:43:29.598Z,16.13
2023-06-07T00:44:29.604Z,16.02
2023-06-07T00:45:29.588Z,16.09
2023-06-07T00:46:29.580Z,16.05
2023-06-07T00:47:29.734Z,16.01
2023-06-07T00:48:29.642Z,16.02
2023-06-07T00:49:29.543Z,16.02
2023-06-07T00:50:29.566Z,15.94
2023-06-07T00:51:29.542Z,15.88
2023-06-07T00:52:29.543Z,15.75
2023-06-07T00:53:29.544Z,15.77
2023-06-07T00:54:29.537Z,15.73
2023-06-07T00:55:29.526Z,15.79
2023-06-07T00:56:29.549Z,15.79
2023-06-07T00:57:29.569Z,15.82
2023-06-07T00:58:29.535Z,15.76
2023-06-07T00:59:29.528Z,15.80
2023-06-07T01:00:29.479Z,15.77
2023-06-07T01:01:29.496Z,15.83
2023-06-07T01:02:29.493Z,15.80
2023-06-07T01:03:29.531Z,15.79
2023-06-07T01:04:29.471Z,15.90
2023-06-07T01:05:29.435Z,15.91
2023-06-07T01:06:29.456Z,15.94
2023-06-07T01:07:29.412Z,16.01
2023-06-07T01:08:29.438Z,16.01
2023-06-07T01:09:29.424Z,16.02
2023-06-07T01:10:29.432Z,16.01
2023-06-07T01:11:29.388Z,15.92
2023-06-07T01:12:29.400Z,16.02
2023-06-07T01:13:29.416Z,15.97
2023-06-07T01:14:29.384Z,16.00
2023-06-07T01:15:29.372Z,16.05
2023-06-07T01:16:29.401Z,16.10
2023-06-07T01:17:29.381Z,16.09
2023-06-07T01:18:29.369Z,16.09
2023-06-07T01:19:29.367Z,16.13
2023-06-07T01:20:29.361Z,16.12
2023-06-07T01:21:29.316Z,16.09
2023-06-07T01:22:29.341Z,16.12
2023-06-07T01:23:29.377Z,16.13
2023-06-07T01:24:29.308Z,16.15
2023-06-07T01:25:29.330Z,16.15
2023-06-07T01:26:29.300Z,16.15
2023-06-07T01:27:29.285Z,16.10
2023-06-07T01:28:29.297Z,16.12
2023-06-07T01:29:29.278Z,16.15
2023-06-07T01:30:29.261Z,16.17
2023-06-07T01:31:29.375Z,16.12
2023-06-07T01:32:29.277Z,16.15
2023-06-07T01:33:29.277Z,16.13
2023-06-07T01:34:29.254Z,16.13
2023-06-07T01:35:29.229Z,16.13
2023-06-07T01:36:29.232Z,16.17
2023-06-07T01:37:29.241Z,16.12
2023-06-07T01:38:29.228Z,16.24
2023-06-07T01:39:29.207Z,16.21
2023-06-07T01:40:29.196Z,16.17
2023-06-07T01:41:29.188Z,16.26
2023-06-07T01:42:29.165Z,16.26
2023-06-07T01:43:29.174Z,16.17
2023-06-07T01:44:29.228Z,16.23
2023-06-07T01:45:29.295Z,16.24
2023-06-07T01:46:29.218Z,16.23
2023-06-07T01:47:29.185Z,16.23
2023-06-07T01:48:29.136Z,16.28
2023-06-07T01:49:29.146Z,16.24
2023-06-07T01:50:29.133Z,16.20
2023-06-07T01:51:29.115Z,16.26
2023-06-07T01:52:29.127Z,16.32
2023-06-07T01:53:29.142Z,16.26
2023-06-07T01:54:29.116Z,16.28
2023-06-07T01:55:29.083Z,16.39
2023-06-07T01:56:29.085Z,16.28
2023-06-07T01:57:29.122Z,16.38
2023-06-07T01:58:29.065Z,16.41
2023-06-07T01:59:29.080Z,16.42
2023-06-07T02:00:29.041Z,16.42
2023-06-07T02:01:29.189Z,16.38
2023-06-07T02:02:29.088Z,16.43
2023-06-07T02:03:29.077Z,16.50
2023-06-07T02:04:29.034Z,16.42
2023-06-07T02:05:29.011Z,16.39
2023-06-07T02:06:29.065Z,16.43
2023-06-07T02:07:29.014Z,16.39
2023-06-07T02:08:29.007Z,16.42
2023-06-07T02:09:29.003Z,16.41
2023-06-07T02:10:29.013Z,16.41
2023-06-07T02:11:29.041Z,16.41
2023-06-07T02:12:28.981Z,16.41
2023-06-07T02:13:28.998Z,16.38
2023-06-07T02:14:28.976Z,16.41
2023-06-07T02:15:29.001Z,16.33
2023-06-07T02:16:28.961Z,16.35
2023-06-07T02:17:29.274Z,16.38
2023-06-07T02:18:28.964Z,16.39
2023-06-07T02:19:28.934Z,16.35
2023-06-07T02:20:28.964Z,16.42
2023-06-07T02:21:28.916Z,16.43
2023-06-07T02:22:28.906Z,16.38
2023-06-07T02:23:28.986Z,16.43
2023-06-07T02:24:28.897Z,16.41
2023-06-07T02:25:28.900Z,16.42
2023-06-07T02:26:28.951Z,16.38
2023-06-07T02:27:28.869Z,16.38
2023-06-07T02:28:28.866Z,16.36
2023-06-07T02:29:28.868Z,16.38
2023-06-07T02:30:28.896Z,16.36
2023-06-07T02:31:28.946Z,16.38
2023-06-07T02:32:28.876Z,16.42
2023-06-07T02:33:28.920Z,16.39
2023-06-07T02:34:28.828Z,16.39
2023-06-07T02:35:28.819Z,16.42
2023-06-07T02:36:28.820Z,16.41
2023-06-07T02:37:28.828Z,16.35
2023-06-07T02:38:28.805Z,16.36
2023-06-07T02:39:28.844Z,16.38
2023-06-07T02:40:28.832Z,16.36
2023-06-07T02:41:28.782Z,16.39
2023-06-07T02:42:28.766Z,16.35
2023-06-07T02:43:28.779Z,16.46
2023-06-07T02:44:28.766Z,16.46
2023-06-07T02:45:28.779Z,16.41
2023-06-07T02:46:28.811Z,16.41
2023-06-07T02:47:28.737Z,16.39
2023-06-07T02:48:28.724Z,16.46
2023-06-07T02:49:28.907Z,16.42
2023-06-07T02:50:28.725Z,16.43
2023-06-07T02:51:28.733Z,16.50
2023-06-07T02:52:28.723Z,16.39
2023-06-07T02:53:28.729Z,16.47
2023-06-07T02:54:28.721Z,16.43
2023-06-07T02:55:28.723Z,16.49
2023-06-07T02:56:28.682Z,16.51
2023-06-07T02:57:28.720Z,16.50
2023-06-07T02:58:28.645Z,16.51
2023-06-07T02:59:28.670Z,16.56
2023-06-07T03:00:28.706Z,16.60
2023-06-07T03:01:29.011Z,16.57
2023-06-07T03:02:28.692Z,16.58
2023-06-07T03:03:28.730Z,16.57
2023-06-07T03:04:28.657Z,16.50
2023-06-07T03:05:28.677Z,16.58
2023-06-07T03:06:28.603Z,16.50
2023-06-07T03:07:28.606Z,16.53
2023-06-07T03:08:28.633Z,16.42
2023-06-07T03:09:28.604Z,16.53
2023-06-07T03:10:28.588Z,16.60
2023-06-07T03:11:28.587Z,16.57
2023-06-07T03:12:28.573Z,16.56
2023-06-07T03:13:28.549Z,16.56
2023-06-07T03:14:28.539Z,16.60
2023-06-07T03:15:28.521Z,16.54
2023-06-07T03:16:28.631Z,16.54
2023-06-07T03:17:28.566Z,16.56
2023-06-07T03:18:28.553Z,16.57
2023-06-07T03:19:28.566Z,16.60
2023-06-07T03:20:28.536Z,16.54
2023-06-07T03:21:28.528Z,16.56
2023-06-07T03:22:28.525Z,16.56
2023-06-07T03:23:28.565Z,16.57
2023-06-07T03:24:28.508Z,16.61
2023-06-07T03:25:28.533Z,16.57
2023-06-07T03:26:28.486Z,16.60
2023-06-07T03:27:28.513Z,16.58
2023-06-07T03:28:28.457Z,16.54
2023-06-07T03:29:28.453Z,16.58
2023-06-07T03:30:28.424Z,16.56
2023-06-07T03:31:28.585Z,16.57
2023-06-07T03:32:28.504Z,16.51
2023-06-07T03:33:28.447Z,16.65
2023-06-07T03:34:28.444Z,16.57
2023-06-07T03:35:31.029Z,16.58
2023-06-07T03:36:28.472Z,16.57
2023-06-07T03:37:28.438Z,16.58
2023-06-07T03:38:28.422Z,16.51
2023-06-07T03:39:28.380Z,16.58
2023-06-07T03:40:28.420Z,16.56
2023-06-07T03:41:28.435Z,16.58
2023-06-07T03:42:28.391Z,16.57
2023-06-07T03:43:28.369Z,16.58
2023-06-07T03:44:28.340Z,16.61
2023-06-07T03:45:28.380Z,16.57
2023-06-07T03:46:28.340Z,16.68
2023-06-07T03:47:28.368Z,16.64
2023-06-07T03:48:28.420Z,16.65
2023-06-07T03:49:28.349Z,16.69
2023-06-07T03:50:28.329Z,16.60
2023-06-07T03:51:28.300Z,16.66
2023-06-07T03:52:28.335Z,16.64
2023-06-07T03:53:28.316Z,16.64
2023-06-07T03:54:28.307Z,16.64
2023-06-07T03:55:28.288Z,16.65
2023-06-07T03:56:28.476Z,16.68
2023-06-07T03:57:28.297Z,16.65
2023-06-07T03:58:28.265Z,16.64
2023-06-07T03:59:28.280Z,16.65
2023-06-07T04:00:28.351Z,16.58
2023-06-07T04:01:28.240Z,16.64
2023-06-07T04:02:28.305Z,16.65
2023-06-07T04:03:28.403Z,16.65
2023-06-07T04:04:28.282Z,16.68
2023-06-07T04:05:28.222Z,16.71
2023-06-07T04:06:28.208Z,16.60
2023-06-07T04:07:28.199Z,16.58
2023-06-07T04:08:28.198Z,16.65
2023-06-07T04:09:28.210Z,16.58
2023-06-07T04:10:28.256Z,16.57
2023-06-07T04:11:28.197Z,16.60
2023-06-07T04:12:28.172Z,16.57
2023-06-07T04:13:28.151Z,16.53
2023-06-07T04:14:28.133Z,16.54
2023-06-07T04:15:28.146Z,16.56
2023-06-07T04:16:28.171Z,16.57
2023-06-07T04:17:28.275Z,16.49
2023-06-07T04:18:28.122Z,16.50
2023-06-07T04:19:28.118Z,16.47
2023-06-07T04:20:28.135Z,16.42
2023-06-07T04:21:28.096Z,16.49
2023-06-07T04:22:28.087Z,16.50
2023-06-07T04:23:28.122Z,16.43
2023-06-07T04:24:28.095Z,16.49
2023-06-07T04:25:28.085Z,16.47
2023-06-07T04:26:28.072Z,16.49
2023-06-07T04:27:28.058Z,16.50
2023-06-07T04:28:28.055Z,16.43
2023-06-07T04:29:28.053Z,16.38
2023-06-07T04:30:28.030Z,16.38
2023-06-07T04:31:28.058Z,16.49
2023-06-07T04:32:28.076Z,16.47
2023-06-07T04:33:28.032Z,16.50
2023-06-07T04:34:28.004Z,16.46
2023-06-07T04:35:28.022Z,16.43
2023-06-07T04:36:27.985Z,16.49
2023-06-07T04:37:27.981Z,16.53
2023-06-07T04:38:27.976Z,16.51
2023-06-07T04:39:27.982Z,16.56
2023-06-07T04:40:27.993Z,16.49
2023-06-07T04:41:27.985Z,16.46
2023-06-07T04:42:27.941Z,16.58
2023-06-07T04:43:27.953Z,16.60
2023-06-07T04:44:27.932Z,16.51
2023-06-07T04:45:27.924Z,16.60
2023-06-07T04:46:27.995Z,16.56
2023-06-07T04:47:28.035Z,16.58
2023-06-07T04:48:27.918Z,16.57
2023-06-07T04:49:27.921Z,16.61
2023-06-07T04:50:27.913Z,16.58
2023-06-07T04:51:27.881Z,16.68
2023-06-07T04:52:29.657Z,16.65
2023-06-07T04:53:27.885Z,16.65
2023-06-07T04:54:27.868Z,16.72
2023-06-07T04:55:27.885Z,16.72
2023-06-07T04:56:27.932Z,16.76
2023-06-07T04:57:27.964Z,16.79
2023-06-07T04:58:27.867Z,16.76
2023-06-07T04:59:27.834Z,16.74
2023-06-07T05:00:27.831Z,16.86
2023-06-07T05:01:27.906Z,16.86
2023-06-07T05:02:27.826Z,16.78
2023-06-07T05:03:27.837Z,16.79
2023-06-07T05:04:27.815Z,16.78
2023-06-07T05:05:27.877Z,16.78
2023-06-07T05:06:27.798Z,16.76
2023-06-07T05:07:27.823Z,16.78
2023-06-07T05:08:27.770Z,16.75
2023-06-07T05:09:29.500Z,16.72
2023-06-07T05:10:27.800Z,16.74
2023-06-07T05:11:27.760Z,16.72
2023-06-07T05:12:27.757Z,16.76
2023-06-07T05:13:27.803Z,16.78
2023-06-07T05:14:27.729Z,16.78
2023-06-07T05:15:27.743Z,16.83
2023-06-07T05:16:27.810Z,16.79
2023-06-07T05:17:27.757Z,16.83
2023-06-07T05:18:27.736Z,16.84
2023-06-07T05:19:27.706Z,16.79
2023-06-07T05:20:27.701Z,16.83
2023-06-07T05:21:27.710Z,16.79
2023-06-07T05:22:27.886Z,16.87
2023-06-07T05:23:28.008Z,16.93
2023-06-07T05:24:27.670Z,16.93
2023-06-07T05:25:27.717Z,16.89
2023-06-07T05:26:27.677Z,16.91
2023-06-07T05:27:27.651Z,16.84
2023-06-07T05:28:27.675Z,16.99
2023-06-07T05:29:27.660Z,16.93
2023-06-07T05:30:27.646Z,17.01
2023-06-07T05:31:27.906Z,17.01
2023-06-07T05:32:27.638Z,17.01
2023-06-07T05:33:27.603Z,16.96
2023-06-07T05:34:27.604Z,17.04
2023-06-07T05:35:27.605Z,16.97
2023-06-07T05:36:27.587Z,17.05
2023-06-07T05:37:27.593Z,16.96
2023-06-07T05:38:27.627Z,16.96
2023-06-07T05:39:27.608Z,17.04
2023-06-07T05:40:27.603Z,17.04
2023-06-07T05:41:27.598Z,17.01
2023-06-07T05:42:27.544Z,17.02
2023-06-07T05:43:27.580Z,17.08
2023-06-07T05:44:27.558Z,17.01
2023-06-07T05:45:27.655Z,17.09
2023-06-07T05:46:27.593Z,17.08
2023-06-07T05:47:27.551Z,17.06
2023-06-07T05:48:27.509Z,17.09
2023-06-07T05:49:27.508Z,17.12
2023-06-07T05:50:27.577Z,17.24
2023-06-07T05:51:27.499Z,17.20
2023-06-07T05:52:27.495Z,17.22
2023-06-07T05:53:27.517Z,17.20
2023-06-07T05:54:27.510Z,17.23
2023-06-07T05:55:27.688Z,17.26
2023-06-07T05:56:27.480Z,17.24
2023-06-07T05:57:27.489Z,17.22
2023-06-07T05:58:27.481Z,17.29
2023-06-07T05:59:27.460Z,17.39
2023-06-07T06:00:27.456Z,17.44
2023-06-07T06:01:27.471Z,17.38
2023-06-07T06:02:27.462Z,17.41
2023-06-07T06:03:27.450Z,17.42
2023-06-07T06:04:27.450Z,17.46
2023-06-07T06:05:27.437Z,17.42
2023-06-07T06:06:27.433Z,17.44
2023-06-07T06:07:27.470Z,17.42
2023-06-07T06:08:27.407Z,17.44
2023-06-07T06:09:27.382Z,17.45
2023-06-07T06:10:27.397Z,17.46
2023-06-07T06:11:27.579Z,17.41
2023-06-07T06:12:27.407Z,17.39
2023-06-07T06:13:27.341Z,17.46
2023-06-07T06:14:27.346Z,17.41
2023-06-07T06:15:27.380Z,17.41
2023-06-07T06:16:27.416Z,17.60
2023-06-07T06:17:27.376Z,17.54
2023-06-07T06:18:27.349Z,17.70
2023-06-07T06:19:27.364Z,17.71
2023-06-07T06:20:27.520Z,17.74
2023-06-07T06:21:27.322Z,17.76
2023-06-07T06:22:27.321Z,17.85
2023-06-07T06:23:27.347Z,17.83
2023-06-07T06:24:27.357Z,17.83
2023-06-07T06:25:27.295Z,18.01
2023-06-07T06:26:27.290Z,17.94
2023-06-07T06:27:27.337Z,18.00
2023-06-07T06:28:27.272Z,18.04
2023-06-07T06:29:27.277Z,17.82
2023-06-07T06:30:27.258Z,17.85
2023-06-07T06:31:27.356Z,17.71
2023-06-07T06:32:27.297Z,17.71
2023-06-07T06:33:27.279Z,17.68
2023-06-07T06:34:27.245Z,17.65
2023-06-07T06:35:27.228Z,17.65
2023-06-07T06:36:27.232Z,17.68
2023-06-07T06:37:27.244Z,17.68
2023-06-07T06:38:27.224Z,17.59
2023-06-07T06:39:27.249Z,17.67
2023-06-07T06:40:27.204Z,17.63
2023-06-07T06:41:27.199Z,17.65
2023-06-07T06:42:27.196Z,17.64
2023-06-07T06:43:27.186Z,17.65
2023-06-07T06:44:27.190Z,17.67
2023-06-07T06:45:27.150Z,17.79
2023-06-07T06:46:27.180Z,17.68
2023-06-07T06:47:27.284Z,17.76
2023-06-07T06:48:27.157Z,17.86
2023-06-07T06:49:27.166Z,17.86
2023-06-07T06:51:27.127Z,17.80
2023-06-07T06:52:27.141Z,17.83
2023-06-07T06:53:27.116Z,17.89
2023-06-07T06:54:27.149Z,17.87
2023-06-07T06:55:27.112Z,17.79
2023-06-07T06:56:27.104Z,17.87
2023-06-07T06:57:27.103Z,17.83
2023-06-07T06:58:27.114Z,17.83
2023-06-07T06:59:27.080Z,17.90
2023-06-07T07:00:27.174Z,17.85
2023-06-07T07:01:27.126Z,17.90
2023-06-07T07:02:27.120Z,18.03
2023-06-07T07:03:27.051Z,18.01
2023-06-07T07:04:27.157Z,18.16
2023-06-07T07:05:29.541Z,18.10
2023-06-07T07:06:27.078Z,18.18
2023-06-07T07:07:27.051Z,18.25
2023-06-07T07:08:27.029Z,18.29
2023-06-07T07:09:27.050Z,18.31
2023-06-07T07:10:27.005Z,18.43
2023-06-07T07:11:27.006Z,18.43
2023-06-07T07:12:27.025Z,18.49
2023-06-07T07:13:27.047Z,18.59
2023-06-07T07:14:27.000Z,18.62
2023-06-07T07:15:26.987Z,18.65
2023-06-07T07:16:27.016Z,18.73
2023-06-07T07:17:27.018Z,18.77
2023-06-07T07:18:26.987Z,18.80
2023-06-07T07:19:26.981Z,18.77
2023-06-07T07:20:26.967Z,18.75
2023-06-07T07:21:27.036Z,18.88
2023-06-07T07:22:28.839Z,18.92
2023-06-07T07:23:26.975Z,18.93
2023-06-07T07:24:26.940Z,18.98
2023-06-07T07:25:26.944Z,19.08
2023-06-07T07:26:27.202Z,19.02
2023-06-07T07:27:26.953Z,19.11
2023-06-07T07:28:26.916Z,19.12
2023-06-07T07:29:28.922Z,19.15
2023-06-07T07:30:26.916Z,19.14
2023-06-07T07:31:26.886Z,19.22
2023-06-07T07:32:26.921Z,19.19
2023-06-07T07:33:26.903Z,19.22
2023-06-07T07:34:26.928Z,19.18
2023-06-07T07:35:26.888Z,18.98
2023-06-07T07:36:27.117Z,18.81
2023-06-07T07:37:27.109Z,18.62
2023-06-07T07:38:26.884Z,18.59
2023-06-07T07:39:27.080Z,18.59
2023-06-07T07:40:26.846Z,18.37
2023-06-07T07:41:26.858Z,18.44
2023-06-07T07:42:26.843Z,18.31
2023-06-07T07:43:27.598Z,18.38
2023-06-07T07:44:26.841Z,18.35
2023-06-07T07:45:26.815Z,18.45
2023-06-07T07:46:26.864Z,18.40
2023-06-07T07:47:26.828Z,18.59
2023-06-07T07:48:26.807Z,18.65
2023-06-07T07:49:26.794Z,18.78
2023-06-07T07:50:26.801Z,18.78
2023-06-07T07:51:26.778Z,18.74
2023-06-07T07:52:26.776Z,18.86
2023-06-07T07:53:26.837Z,18.84
2023-06-07T07:54:26.786Z,18.95
2023-06-07T07:55:26.758Z,18.99
2023-06-07T07:56:26.801Z,19.04
2023-06-07T07:57:26.793Z,19.04
2023-06-07T07:58:26.745Z,19.14
2023-06-07T07:59:26.741Z,19.15
2023-06-07T08:00:26.749Z,19.18
2023-06-07T08:01:26.720Z,19.19
2023-06-07T08:02:26.768Z,19.15
2023-06-07T08:03:26.816Z,19.16
2023-06-07T08:04:26.727Z,19.02
2023-06-07T08:05:26.715Z,18.95
2023-06-07T08:06:26.713Z,18.89
2023-06-07T08:07:26.726Z,18.89
2023-06-07T08:08:26.691Z,18.77
2023-06-07T08:09:26.739Z,18.78
2023-06-07T08:10:26.715Z,18.74
2023-06-07T08:11:26.684Z,18.89
2023-06-07T08:12:26.669Z,19.02
2023-06-07T08:13:26.661Z,19.15
2023-06-07T08:14:26.668Z,19.15
2023-06-07T08:15:26.658Z,19.12
2023-06-07T08:16:26.651Z,19.12
2023-06-07T08:17:26.638Z,18.99
2023-06-07T08:18:26.654Z,18.92
2023-06-07T08:19:26.676Z,18.98
2023-06-07T08:20:26.629Z,19.02
2023-06-07T08:21:26.614Z,19.08
2023-06-07T08:22:26.613Z,19.16
2023-06-07T08:23:26.628Z,19.15
2023-06-07T08:24:26.603Z,19.16
2023-06-07T08:25:26.711Z,19.24
2023-06-07T08:26:26.597Z,19.18
2023-06-07T08:27:26.582Z,19.08
2023-06-07T08:28:26.807Z,19.15
2023-06-07T08:29:26.568Z,19.16
2023-06-07T08:30:26.580Z,19.18
2023-06-07T08:31:26.612Z,19.34
2023-06-07T08:32:26.592Z,19.29
2023-06-07T08:33:26.561Z,19.40
2023-06-07T08:34:26.555Z,19.36
2023-06-07T08:35:26.539Z,19.37
2023-06-07T08:36:26.532Z,19.47
2023-06-07T08:37:26.529Z,19.49
2023-06-07T08:38:26.551Z,19.59
2023-06-07T08:39:26.511Z,19.58
2023-06-07T08:40:26.520Z,19.73
2023-06-07T08:41:26.586Z,19.88
2023-06-07T08:42:26.504Z,20.02
2023-06-07T08:43:26.512Z,20.11
2023-06-07T08:44:26.517Z,20.16
2023-06-07T08:45:26.569Z,20.28
2023-06-07T08:46:26.547Z,20.37
2023-06-07T08:47:26.538Z,20.37
2023-06-07T08:48:26.478Z,20.40
2023-06-07T08:49:26.472Z,20.56
2023-06-07T08:50:26.520Z,20.62
2023-06-07T08:51:26.476Z,20.55
2023-06-07T08:52:26.485Z,20.74
2023-06-07T08:53:26.446Z,20.74
2023-06-07T08:54:26.477Z,20.70
2023-06-07T08:55:26.462Z,20.69
2023-06-07T08:56:26.517Z,20.70
2023-06-07T08:57:26.463Z,20.82
2023-06-07T08:58:26.444Z,20.96
2023-06-07T08:59:26.438Z,21.02
2023-06-07T09:00:26.435Z,21.00
2023-06-07T09:01:27.047Z,21.06
2023-06-07T09:02:26.469Z,21.15
2023-06-07T09:03:26.554Z,21.03
2023-06-07T09:04:26.603Z,20.95
2023-06-07T09:05:26.404Z,20.96
2023-06-07T09:06:26.392Z,20.97
2023-06-07T09:07:26.389Z,20.80
2023-06-07T09:08:26.395Z,20.65
2023-06-07T09:09:26.400Z,20.37
2023-06-07T09:10:26.377Z,20.37
2023-06-07T09:11:26.375Z,20.34
2023-06-07T09:12:26.371Z,20.39
2023-06-07T09:13:26.394Z,20.32
2023-06-07T09:14:26.369Z,20.40
2023-06-07T09:15:26.364Z,20.55
2023-06-07T09:16:26.475Z,20.74
2023-06-07T09:17:26.481Z,20.75
2023-06-07T09:18:26.383Z,20.80
2023-06-07T09:19:26.328Z,20.85
2023-06-07T09:20:26.332Z,20.90
2023-06-07T09:21:26.339Z,20.97
2023-06-07T09:22:26.340Z,20.97
2023-06-07T09:23:26.402Z,20.92
2023-06-07T09:24:26.320Z,20.75
2023-06-07T09:25:26.317Z,20.77
2023-06-07T09:26:26.310Z,20.85
2023-06-07T09:27:26.319Z,20.96
2023-06-07T09:28:26.309Z,20.84
2023-06-07T09:29:26.329Z,20.81
2023-06-07T09:30:26.293Z,20.87
2023-06-07T09:31:26.316Z,20.99
2023-06-07T09:32:26.367Z,21.12
2023-06-07T09:33:26.315Z,21.39
2023-06-07T09:34:26.387Z,21.48
2023-06-07T09:35:26.312Z,21.62
2023-06-07T09:36:26.378Z,21.67
2023-06-07T09:37:26.291Z,21.92
2023-06-07T09:38:26.301Z,22.04
2023-06-07T09:39:26.281Z,22.25
2023-06-07T09:40:26.258Z,22.36
2023-06-07T09:41:26.318Z,22.51
2023-06-07T09:42:26.317Z,22.63
2023-06-07T09:43:26.245Z,22.57
2023-06-07T09:44:26.400Z,22.68
2023-06-07T09:45:26.513Z,22.75
2023-06-07T09:46:26.318Z,22.59
2023-06-07T09:47:26.383Z,22.36
2023-06-07T09:48:26.364Z,22.07
2023-06-07T09:49:26.275Z,22.00
2023-06-07T09:50:26.245Z,21.99
2023-06-07T09:51:26.235Z,22.18
2023-06-07T09:52:27.545Z,22.15
2023-06-07T09:53:26.207Z,22.07
2023-06-07T09:54:26.208Z,21.88
2023-06-07T09:55:26.210Z,21.77
2023-06-07T09:56:26.255Z,21.55
2023-06-07T09:57:26.230Z,21.45
2023-06-07T09:58:26.280Z,21.24
2023-06-07T09:59:26.234Z,21.09
2023-06-07T10:00:26.235Z,21.02
2023-06-07T10:01:26.460Z,20.93
2023-06-07T10:02:26.259Z,21.03
2023-06-07T10:03:26.282Z,20.90
2023-06-07T10:04:26.185Z,20.96
2023-06-07T10:05:26.178Z,20.95
2023-06-07T10:06:26.176Z,21.07
2023-06-07T10:07:26.150Z,21.18
2023-06-07T10:08:26.151Z,21.37
2023-06-07T10:09:26.133Z,21.51
2023-06-07T10:10:26.142Z,21.55
2023-06-07T10:11:26.149Z,21.80
2023-06-07T10:12:26.232Z,21.91
2023-06-07T10:13:26.148Z,21.82
2023-06-07T10:14:26.187Z,21.79
2023-06-07T10:15:26.342Z,21.83
2023-06-07T10:16:26.210Z,22.04
2023-06-07T10:17:26.528Z,22.14
2023-06-07T10:18:26.161Z,22.26
2023-06-07T10:19:26.135Z,22.33
2023-06-07T10:20:26.129Z,22.10
2023-06-07T10:21:26.091Z,21.92
2023-06-07T10:22:26.137Z,21.60
2023-06-07T10:23:26.185Z,21.67
2023-06-07T10:24:26.141Z,21.64
2023-06-07T10:25:26.095Z,21.52
2023-06-07T10:26:26.126Z,21.57
2023-06-07T10:27:26.082Z,21.45
2023-06-07T10:28:26.066Z,21.54
2023-06-07T10:29:27.363Z,21.48
2023-06-07T10:30:26.057Z,21.55
2023-06-07T10:31:26.137Z,21.55
2023-06-07T10:32:26.127Z,21.80
2023-06-07T10:33:26.055Z,21.91
2023-06-07T10:34:26.043Z,21.61
2023-06-07T10:35:26.269Z,21.61
2023-06-07T10:36:26.019Z,21.62
2023-06-07T10:37:26.215Z,21.79
2023-06-07T10:38:26.021Z,21.92
2023-06-07T10:39:26.104Z,21.73
2023-06-07T10:40:26.017Z,21.85
2023-06-07T10:41:26.065Z,21.96
2023-06-07T10:42:26.023Z,22.15
2023-06-07T10:43:25.991Z,22.22
2023-06-07T10:44:26.007Z,22.22
2023-06-07T10:45:26.389Z,22.50
2023-06-07T10:46:26.076Z,22.75
2023-06-07T10:47:26.083Z,22.73
2023-06-07T10:48:26.069Z,22.90
2023-06-07T10:49:26.027Z,23.21
2023-06-07T10:50:26.032Z,23.37
2023-06-07T10:51:26.019Z,23.37
2023-06-07T10:52:26.003Z,23.18
2023-06-07T10:53:26.012Z,22.94
2023-06-07T10:54:25.948Z,22.83
2023-06-07T10:55:25.987Z,22.73
2023-06-07T10:56:25.958Z,22.65
2023-06-07T10:57:25.965Z,22.60
2023-06-07T10:58:26.019Z,22.69
2023-06-07T10:59:26.173Z,22.78
2023-06-07T11:00:26.244Z,22.78
2023-06-07T11:01:25.966Z,22.76
2023-06-07T11:02:26.536Z,22.80
2023-06-07T11:03:26.087Z,22.91
2023-06-07T11:04:26.276Z,23.10
2023-06-07T11:05:26.137Z,23.10
2023-06-07T11:06:25.926Z,22.85
2023-06-07T11:07:25.933Z,22.72
2023-06-07T11:08:26.121Z,22.91
2023-06-07T11:09:25.911Z,23.13
2023-06-07T11:10:26.131Z,23.24
2023-06-07T11:11:26.986Z,23.34
2023-06-07T11:12:25.904Z,23.32
2023-06-07T11:13:25.944Z,23.24
2023-06-07T11:14:25.899Z,23.17
2023-06-07T11:15:25.922Z,23.05
2023-06-07T11:16:26.090Z,22.90
2023-06-07T11:17:25.924Z,22.87
2023-06-07T11:18:28.614Z,22.83
2023-06-07T11:19:25.881Z,22.73
2023-06-07T11:20:25.851Z,22.75
2023-06-07T11:21:25.959Z,22.53
2023-06-07T11:22:25.929Z,22.41
2023-06-07T11:23:26.199Z,22.22
2023-06-07T11:24:25.999Z,22.04
2023-06-07T11:25:25.867Z,22.04
2023-06-07T11:26:25.847Z,22.08
2023-06-07T11:27:25.861Z,22.14
2023-06-07T11:28:25.859Z,22.20
2023-06-07T11:29:26.176Z,22.18
2023-06-07T11:30:25.864Z,22.29
2023-06-07T11:31:25.879Z,22.18
2023-06-07T11:32:26.040Z,22.25
2023-06-07T11:33:25.881Z,22.29
2023-06-07T11:34:25.858Z,22.41
2023-06-07T11:35:25.820Z,22.51
2023-06-07T11:36:25.839Z,22.32
2023-06-07T11:37:25.904Z,22.33
2023-06-07T11:38:25.800Z,22.39
2023-06-07T11:39:25.817Z,22.57
2023-06-07T11:40:25.819Z,22.65
2023-06-07T11:41:25.803Z,22.69
2023-06-07T11:42:25.796Z,22.78
2023-06-07T11:43:25.824Z,22.72
2023-06-07T11:44:25.810Z,22.85
2023-06-07T11:45:25.777Z,22.91
2023-06-07T11:46:25.794Z,22.81
2023-06-07T11:47:26.298Z,22.90
2023-06-07T11:48:25.846Z,22.93
2023-06-07T11:49:25.800Z,23.10
2023-06-07T11:50:25.776Z,23.20
2023-06-07T11:51:25.786Z,23.27
2023-06-07T11:52:25.988Z,23.39
2023-06-07T11:53:26.071Z,23.50
2023-06-07T11:54:25.745Z,23.63
2023-06-07T11:55:25.755Z,23.48
2023-06-07T11:56:25.768Z,23.47
2023-06-07T11:57:25.933Z,23.36
2023-06-07T11:58:25.936Z,23.23
2023-06-07T11:59:25.759Z,22.87
2023-06-07T12:00:25.751Z,22.85
2023-06-07T12:01:25.716Z,22.83
2023-06-07T12:02:25.857Z,22.98
2023-06-07T12:03:26.195Z,23.05
2023-06-07T12:04:25.744Z,23.05
2023-06-07T12:05:25.784Z,22.87
2023-06-07T12:06:25.701Z,22.72
2023-06-07T12:07:25.712Z,22.66
2023-06-07T12:08:25.702Z,22.65
2023-06-07T12:09:25.821Z,22.70
2023-06-07T12:10:25.683Z,22.69
2023-06-07T12:11:25.765Z,22.81
2023-06-07T12:12:25.686Z,22.78
2023-06-07T12:13:25.662Z,22.85
2023-06-07T12:14:27.491Z,22.91
2023-06-07T12:15:25.718Z,22.88
2023-06-07T12:16:25.691Z,22.87
2023-06-07T12:17:25.685Z,22.90
2023-06-07T12:18:25.679Z,23.06
2023-06-07T12:19:25.648Z,23.23
2023-06-07T12:20:25.643Z,23.21
2023-06-07T12:21:25.665Z,23.34
2023-06-07T12:22:25.647Z,23.34
2023-06-07T12:23:25.646Z,23.51
2023-06-07T12:24:25.622Z,23.56
2023-06-07T12:25:26.118Z,23.69
2023-06-07T12:26:25.647Z,23.73
2023-06-07T12:27:25.610Z,23.76
2023-06-07T12:28:25.621Z,23.51
2023-06-07T12:29:25.601Z,23.43
2023-06-07T12:30:25.609Z,23.23
2023-06-07T12:31:25.656Z,23.40
2023-06-07T12:32:25.724Z,23.44
2023-06-07T12:33:25.627Z,23.59
2023-06-07T12:34:25.590Z,23.74
2023-06-07T12:35:25.612Z,23.84
2023-06-07T12:36:25.637Z,23.84
2023-06-07T12:37:25.588Z,23.77
2023-06-07T12:38:25.597Z,23.74
2023-06-07T12:39:25.792Z,23.77
2023-06-07T12:40:25.591Z,23.96
2023-06-07T12:41:25.641Z,24.16
2023-06-07T12:42:25.563Z,24.50
2023-06-07T12:43:25.774Z,24.55
2023-06-07T12:44:25.606Z,24.58
2023-06-07T12:45:25.555Z,24.68
2023-06-07T12:46:25.613Z,24.57
2023-06-07T12:47:25.595Z,24.53
2023-06-07T12:48:25.592Z,24.40
2023-06-07T12:49:25.572Z,24.40
2023-06-07T12:50:25.540Z,24.55
2023-06-07T12:51:25.803Z,24.45
2023-06-07T12:52:25.560Z,24.39
2023-06-07T12:53:25.621Z,24.24